Flight Track Log - Related Links

Times and Time Zones

All times are in EDT time to prevent confusion due to time zone crossing. See the SKW7332 flight status page for this flight to view local times or setup timezone preferences in your user account.

Time Position Orientation Groundspeed Altitude Reporting Facility
EDT Latitude Longitude Course Direction KTS MPH feet Rate Location/Type
Thu 11:26:02 AM 32.1061 -110.9267 132° Southeast 154 177 3,200  Level Albuquerque Center
Thu 11:27:15 AM 32.0628 -110.8703 132° Southeast 204 235 5,700 2,438 Climbing Albuquerque Center
Thu 11:28:10 AM 32.0658 -110.7989 87° East 261 300 8,400 2,719 Climbing Albuquerque Center
Thu 11:28:19 AM 32.0703 -110.7939 44° Northeast 280 322 8,600 3,000 Climbing Albuquerque Center
Thu 11:29:04 AM 32.1208 -110.7842 North 257 296 11,100 3,000 Climbing Albuquerque Center
Thu 11:29:21 AM 32.1356 -110.7872 350° North 252 290 11,700 2,203 Climbing Albuquerque Center
Thu 11:30:23 AM 32.1914 -110.8372 323° Northwest 249 287 14,000 2,371 Climbing Albuquerque Center
Thu 11:31:25 AM 32.2683 -110.9092 322° Northwest 287 330 16,600 2,256 Climbing Albuquerque Center
Thu 11:32:28 AM 32.3386 -110.9722 323° Northwest 310 357 18,700 1,632 Climbing Albuquerque Center
Thu 11:33:30 AM 32.4119 -111.0375 323° Northwest 322 371 20,000 629 Climbing Albuquerque Center
Thu 11:34:32 AM 32.4950 -111.1128 323° Northwest 363 418 20,000 435 Level Albuquerque Center
Thu 11:35:34 AM 32.5786 -111.1883 323° Northwest 376 433 20,900 1,500 Climbing Albuquerque Center
Thu 11:36:36 AM 32.6561 -111.2589 323° Northwest 361 415 23,100 1,742 Climbing Albuquerque Center
Thu 11:37:38 AM 32.7525 -111.3431 324° Northwest 360 414 24,500 1,258 Climbing Albuquerque Center
Thu 11:38:40 AM 32.8331 -111.4178 322° Northwest 365 420 25,700 1,065 Climbing Albuquerque Center
Thu 11:39:42 AM 32.9156 -111.4922 323° Northwest 369 425 26,700 871 Climbing Albuquerque Center
Thu 11:40:44 AM 33.0000 -111.5692 323° Northwest 379 436 27,500 774 Climbing Albuquerque Center
Thu 11:41:46 AM 33.0844 -111.6464 323° Northwest 380 437 28,300 768 Climbing Albuquerque Center
Thu 11:42:49 AM 33.1683 -111.7247 322° Northwest 381 438 29,100 864 Climbing Albuquerque Center
Thu 11:43:51 AM 33.2692 -111.8183 322° Northwest 382 440 30,100 871 Climbing Albuquerque Center
Thu 11:44:53 AM 33.3531 -111.8939 323° Northwest 381 438 30,900 774 Climbing Albuquerque Center
Thu 11:45:55 AM 33.4367 -111.9711 322° Northwest 381 438 31,700 532 Climbing Albuquerque Center
Thu 11:46:57 AM 33.5431 -112.0044 345° North 403 464 32,000 145 Climbing Albuquerque Center
Thu 11:47:59 AM 33.6639 -112.0014 North 427 491 32,000  Level Albuquerque Center
Thu 11:49:01 AM 33.7836 -112.0036 359° North 428 493 32,000  Level Albuquerque Center
Thu 11:50:03 AM 33.9036 -112.0089 358° North 427 491 32,000  Level Albuquerque Center
Thu 11:51:05 AM 34.0458 -112.0167 357° North 419 482 32,000  Level Albuquerque Center
Thu 11:52:07 AM 34.1647 -112.0253 357° North 415 478 32,000  Level Albuquerque Center
Thu 11:53:09 AM 34.2758 -112.0344 356° North 410 472 32,000  Level Albuquerque Center
Thu 11:54:12 AM 34.3864 -112.0428 356° North 401 461 32,000  Level Albuquerque Center
Thu 11:55:14 AM 34.4936 -112.0506 357° North 391 450 32,000  Level Albuquerque Center
Thu 11:56:16 AM 34.6014 -112.0597 356° North 390 449 32,000  Level Albuquerque Center
Thu 11:57:18 AM 34.7094 -112.0678 356° North 390 449 32,000  Level Albuquerque Center
Thu 11:58:20 AM 34.8239 -112.0781 356° North 390 449 32,000  Level Albuquerque Center
Thu 11:59:22 AM 34.9339 -112.0847 357° North 391 450 32,000  Level Albuquerque Center
Thu 12:00:24 PM 35.0661 -112.0947 356° North 395 455 32,000  Level Albuquerque Center
Thu 12:01:26 PM 35.1778 -112.1039 356° North 399 459 32,000  Level Albuquerque Center
Thu 12:02:28 PM 35.2894 -112.1117 357° North 401 461 32,000  Level Albuquerque Center
Thu 12:03:30 PM 35.4000 -112.1206 356° North 401 461 32,000  Level Albuquerque Center
Thu 12:04:34 PM 35.5311 -112.1297 357° North 400 460 32,000  Level Albuquerque Center
Thu 12:05:35 PM 35.6403 -112.1381 356° North 398 458 32,000  Level Albuquerque Center
Thu 12:06:38 PM 35.7472 -112.1464 356° North 392 451 32,000  Level Albuquerque Center
Thu 12:07:40 PM 35.8544 -112.1550 356° North 391 450 32,000  Level Albuquerque Center
Thu 12:08:42 PM 35.9608 -112.1622 357° North 390 449 32,000  Level Albuquerque Center
Thu 12:09:44 PM 36.0892 -112.1733 356° North 389 448 32,000  Level Albuquerque Center
Thu 12:11:14 PM 36.2517 -112.1864 356° North 384 442 32,000  Level Los Angeles Center
Thu 12:12:16 PM 36.3622 -112.1964 356° North 384 442 32,000  Level Los Angeles Center
Thu 12:13:18 PM 36.4631 -112.2044 356° North 383 441 32,000  Level Los Angeles Center
Thu 12:14:20 PM 36.5697 -112.2111 357° North 383 441 32,000  Level Los Angeles Center
Thu 12:15:23 PM 36.6761 -112.2203 356° North 383 441 32,000  Level Los Angeles Center
Thu 12:16:25 PM 36.7817 -112.2292 356° North 383 441 32,000  Level Los Angeles Center
Thu 12:17:27 PM 36.9111 -112.2397 356° North 384 442 32,000  Level Los Angeles Center
Thu 12:18:29 PM 37.0183 -112.2483 356° North 386 444 32,000  Level Los Angeles Center
Thu 12:19:31 PM 37.1256 -112.2567 356° North 386 444 32,000  Level Los Angeles Center
Thu 12:20:33 PM 37.2325 -112.2661 356° North 386 444 32,000  Level Los Angeles Center
Thu 12:21:36 PM 37.3408 -112.2744 357° North 387 445 32,000  Level Los Angeles Center
Thu 12:22:38 PM 37.4708 -112.2858 356° North 389 448 32,000  Level Los Angeles Center
Thu 12:23:40 PM 37.5803 -112.2944 356° North 393 452 32,000  Level Los Angeles Center
Thu 12:24:42 PM 37.6867 -112.3017 357° North 392 451 32,000  Level Los Angeles Center
Thu 12:25:49 PM 37.8200 -112.2858 North 399 459 32,000  Level Salt Lake Center
Thu 12:26:51 PM 37.9303 -112.2719 North 399 459 32,000  Level Salt Lake Center
Thu 12:27:53 PM 38.0394 -112.2575 North 399 459 32,000  Level Salt Lake Center
Thu 12:28:54 PM 38.1489 -112.2428 North 398 458 32,000  Level Salt Lake Center
Thu 12:29:56 PM 38.2578 -112.2272 North 398 458 32,000  Level Salt Lake Center
Thu 12:30:58 PM 38.3903 -112.2083 North 398 458 32,000  Level Salt Lake Center
Thu 12:32:00 PM 38.5006 -112.1942 North 399 459 32,000  Level Salt Lake Center
Thu 12:33:02 PM 38.6111 -112.1775 North 399 459 32,000  Level Salt Lake Center
Thu 12:34:04 PM 38.7197 -112.1633 North 398 458 32,000  Level Salt Lake Center
Thu 12:35:06 PM 38.8297 -112.1475 North 398 458 32,000  Level Salt Lake Center
Thu 12:36:07 PM 38.9392 -112.1333 North 398 458 32,000  Level Salt Lake Center
Thu 12:37:09 PM 39.0500 -112.1172 North 398 458 32,000 -1,113 Level Salt Lake Center
Thu 12:38:11 PM 39.1808 -112.0992 North 398 458 29,700 -2,081 Descending Salt Lake Center
Thu 12:39:13 PM 39.2786 -112.0844 North 383 441 27,700 -1,984 Descending Salt Lake Center
Thu 12:40:15 PM 39.3836 -112.0697 North 381 438 25,600 -2,081 Descending Salt Lake Center
Thu 12:41:17 PM 39.4869 -112.0544 North 376 433 23,400 -2,323 Descending Salt Lake Center
Thu 12:42:19 PM 39.6103 -112.0389 North 373 429 20,800 -2,341 Descending Salt Lake Center
Thu 12:43:20 PM 39.7119 -112.0233 North 370 426 18,600 -2,195 Descending Salt Lake Center
Thu 12:44:22 PM 39.8064 -112.0094 North 345 397 16,300 -2,259 Descending Salt Lake Center
Thu 12:44:45 PM 39.8425 -112.0150 353° North 332 382 15,400 -1,472 Descending Salt Lake Center
Thu 12:45:15 PM 39.8931 -112.0092 North 335 386 15,000 -615 Descending Salt Lake Center
Thu 12:45:24 PM 39.8986 -111.9961 61° Northeast 338 389 15,000  Level Salt Lake Center
Thu 12:46:10 PM 39.9697 -111.9944 North 296 341 15,000 -97 Level Salt Lake Center
Thu 12:46:26 PM 39.9817 -111.9839 34° Northeast 298 343 14,900 -1,100 Descending Salt Lake Center
Thu 12:47:10 PM 40.0497 -111.9844 360° North 293 337 13,900 -1,161 Descending Salt Lake Center
Thu 12:47:28 PM 40.0622 -111.9733 34° Northeast 293 337 13,700 -1,279 Descending Salt Lake Center
Thu 12:48:11 PM 40.1283 -111.9692 North 282 325 12,600 -1,452 Descending Salt Lake Center
Thu 12:48:30 PM 40.1567 -111.9589 15° North 285 328 12,200 -1,279 Descending Salt Lake Center
Thu 12:49:12 PM 40.2083 -111.9592 360° North 285 328 11,300 -1,180 Descending Salt Lake Center
Thu 12:49:31 PM 40.2347 -111.9481 18° North 285 328 11,000 -300 Descending Salt Lake Center
Thu 12:50:12 PM 40.2897 -111.9458 North 284 327 11,000  Level Salt Lake Center
Thu 12:50:33 PM 40.3136 -111.9358 18° North 285 328 11,000  Level Salt Lake Center
Thu 12:51:07 PM 40.3589 -111.9364 359° North 287 330 11,000  Level Salt Lake Center
Thu 12:51:35 PM 40.3928 -111.9281 11° North 285 328 11,000  Level Salt Lake Center
Thu 12:52:07 PM 40.4367 -111.9383 350° North 280 322 11,000 -387 Level Salt Lake Center
Thu 12:52:37 PM 40.4703 -111.9358 North 281 323 10,600 -1,574 Descending Salt Lake Center
Thu 12:53:08 PM 40.5161 -111.9481 349° North 264 304 9,400 -1,574 Descending Salt Lake Center
Thu 12:53:38 PM 40.5403 -111.9467 North 249 287 9,000 -1,164 Descending Salt Lake Center
Thu 12:54:15 PM 40.5819 -111.9539 353° North 210 242 8,100 -1,161 Descending Salt Lake Center
Thu 12:54:40 PM 40.5994 -111.9531 North 218 251 7,800 -1,200 Descending Salt Lake Center
Thu 12:55:15 PM 40.6392 -111.9597 353° North 209 241 6,900 -1,355 Descending Salt Lake Center
Thu 12:55:42 PM 40.6689 -111.9611 358° North 212 244 6,400 -982 Descending Salt Lake Center
Thu 12:56:10 PM 40.6897 -111.9653 351° North 193 222 6,000 -871 Descending Salt Lake Center
Thu 12:56:44 PM 40.7139 -111.9658 359° North 165 190 5,500 -800 Descending Salt Lake Center
Thu 12:57:10 PM 40.7297 -111.9714 345° North 142 163 5,200 -689 Descending Salt Lake Center
Thu 12:57:45 PM 40.7539 -111.9708 North 150 173 4,800 -787 Descending Salt Lake Center
Thu 12:58:11 PM 40.7692 -111.9750 348° North 137 158 4,400 -581 Descending Salt Lake Center
Thu 12:58:47 PM 40.7897 -111.9742 North 133 153 4,200 -333 Descending Salt Lake Center
Thu 01:00:00 PM 40.7833 -111.9667 North  Level FlightAware Approximate

Login

Don't have an account? Register now (free) for customized features, flight alerts, and more!